メインページ
METAR-TAF:

METAR-TAF

空港 :

ヴァヴァウ国際空港

ヴァヴァウ諸島, トンガ

緯度: 18-35-07S, 経度: 173-57-42W, 海抜: 72m

現時点の気象観測

当レポートは2時間6分前の06:00(UTC)に作成
無風
気温 27°C
湿度 84%
気圧 1009 hPa
視程10km以上
高度1700ftの雲は散在している

METAR: NFTV 190600Z 00000KT 9999 SCT017 27/24 Q1009

時間: 21:06 (08:06 UTC)

予報

当レポートは2時間58分前の05:08(UTC)に作成
予報は19日の 06時(UTC)から 20日の 06時(UTC)まで有効
変向風 3kt
視程10km以上
高度1600ftの雲は散在している

TAF: NFTV 190508Z 1906/2006 VRB03KT 9999 SCT016

4,000以上の空港の気象観測と天気予報(METAR報とTAF報)

利用可能な観測所は地図上に黄色い丸と赤い丸で示す。

丸の上にカーソルを重ねると観測所名を参照できる。

次にクリックすると気象観測と天気予報を参照できる。

マップの切り替え:黒色「×」印の緑ボタンをクリックして拡大、「-」印の緑ボタンをクリックして縮小、緑色の三角印をクリックして隣りの地図に切り替え


METAR-TAF: